Terminal Aerodrome Forecast
Issued by NWS Wilmington, NC

Home | Current Version | Previous Version | Text Only | Print | Product List | Glossary On
Versions: 1 2 3 4 5 6 7 8 9 10 11 12 13 14 15 16
558
FTUS42 KILM 081124
TAFMYR
TAF
KMYR 081124Z 0812/0912 VRB03KT 6SM BR SCT008 BKN015
      TEMPO 0812/0814 SCT003 OVC040
     FM081500 27005KT P6SM SCT020
     FM081900 34007KT P6SM SCT050 BKN100
     FM090000 35008KT P6SM SCT250=

USA.gov is the U.S. government's official web portal to all federal, state and local government web resources and services.